Hebron, Maryland
Current Conditions -  °F | °C
As of 6:54 PM on Saturday 25 Oct 2014 (Local Time) from KSBY Reporting Station
Clear Clear  
Wind Chill: 58°   Ceiling: Unl
Heat Index: 58°   Visibility: 10mi
Dew Point: 46°   Wind: 6mph
Humidity: 65%   Direction: 190°S
Pressure: 29.77"   Gusts: NA
Location:  38.42°N, 75.69°W
Report Text: KSBY 252254Z 19005KT 10SM CLR 14/08 A2977 RMK AO2 SLP082 T01440078
Loading
Personal Weather Stations






























Interactive Weather Map
Tropical Storm Tracking
New forecast layout! Learn more

10-Day Weather Forecast

Advertisements
Track Severe Weather on mobile